METAR Data
IDs: Format: Raw Decoded Include TAF

Data at: 1442 UTC 25 Jan 2020

METAR for:KEBS (Webster City Muni, IA, US)
Text:KEBS 251435Z AUTO 30013KT 10SM OVC029 M02/M03 A2999 RMK AO2
Temperature: -2.0°C ( 28°F)
Dewpoint: -3.0°C ( 27°F) [RH = 93%]
Pressure (altimeter):29.99 inches Hg (1015.7 mb)
Winds:from the WNW (300 degrees) at 15 MPH (13 knots; 6.7 m/s)
Visibility:10 or more sm (16+ km)
Ceiling:2900 feet AGL
Clouds: overcast cloud deck at 2900 feet AGL
QC Flag:automated observation with no human augmentation